Time;durP1;ratioP1;P1;durP2;ratioP2;P2;SDS_P1;SDS_P2;PMS_P1;PMS_P2;Temp;Humidity;BMP_temperature;BMP_pressure;BME280_temperature;BME280_humidity;BME280_pressure;Samples;Min_cycle;Max_cycle;Signal;HPM_P1;HPM_P2
2023/07/24 00:02:06;;;;;;;1.42;0.10;;;;;;;18.87;100.00;99627.94;5022165;28;20057;-60
2023/07/24 00:04:31;;;;;;;0.10;0.10;;;;;;;18.83;100.00;99626.84;5021617;28;20517;-54
2023/07/24 00:06:57;;;;;;;2.47;0.40;;;;;;;18.86;100.00;99630.88;5021795;28;20029;-57
2023/07/24 00:09:22;;;;;;;0.80;0.20;;;;;;;18.76;100.00;99625.47;5016889;28;20511;-54
2023/07/24 00:11:47;;;;;;;1.95;0.20;;;;;;;18.79;100.00;99616.88;5022888;28;20425;-56
2023/07/24 00:14:14;;;;;;;0.10;0.00;;;;;;;18.78;100.00;99617.97;5018045;28;20376;-53
2023/07/24 00:16:39;;;;;;;0.30;0.00;;;;;;;18.78;100.00;99616.09;5021763;28;20101;-55
2023/07/24 00:19:05;;;;;;;0.35;0.00;;;;;;;18.79;100.00;99624.94;5022296;28;20486;-57
2023/07/24 00:21:30;;;;;;;0.10;0.10;;;;;;;18.74;100.00;99620.31;5021830;28;20038;-56
2023/07/24 00:23:55;;;;;;;4.78;1.17;;;;;;;18.65;100.00;99621.94;5017935;28;20037;-57
2023/07/24 00:26:21;;;;;;;1.10;0.13;;;;;;;18.50;100.00;99620.81;5019635;28;20033;-56
2023/07/24 00:28:46;;;;;;;0.85;0.30;;;;;;;18.34;100.00;99627.22;5021308;28;20037;-55
2023/07/24 00:31:11;;;;;;;0.20;0.20;;;;;;;18.26;100.00;99630.41;5021642;28;20061;-53
2023/07/24 00:33:36;;;;;;;0.40;0.10;;;;;;;18.25;100.00;99632.28;5021558;28;20086;-55
2023/07/24 00:36:02;;;;;;;0.70;0.10;;;;;;;18.23;100.00;99628.25;5021189;28;21132;-56
2023/07/24 00:38:27;;;;;;;0.95;0.30;;;;;;;18.24;100.00;99625.28;5018234;28;20045;-56
2023/07/24 00:40:52;;;;;;;1.27;0.30;;;;;;;18.31;100.00;99631.22;5019842;28;20522;-55
2023/07/24 00:43:18;;;;;;;0.30;0.30;;;;;;;18.33;100.00;99638.19;5010667;28;20030;-56
2023/07/24 00:45:46;;;;;;;0.43;0.10;;;;;;;18.36;100.00;99635.00;5019699;28;20483;-55
2023/07/24 00:48:11;;;;;;;0.52;0.20;;;;;;;18.39;100.00;99634.47;5013416;28;20080;-55
2023/07/24 00:50:37;;;;;;;0.10;0.10;;;;;;;18.41;100.00;99629.66;5021352;28;20258;-52
2023/07/24 00:53:03;;;;;;;0.30;0.30;;;;;;;18.37;100.00;99617.81;5021263;28;20540;-54
2023/07/24 00:55:29;;;;;;;0.88;0.17;;;;;;;18.31;100.00;99620.50;5015666;28;20426;-52
2023/07/24 00:57:57;;;;;;;0.57;0.30;;;;;;;18.40;100.00;99611.94;5022724;28;20121;-54
2023/07/24 01:00:23;;;;;;;1.58;0.10;;;;;;;18.30;100.00;99618.88;5020507;28;20108;-56
2023/07/24 01:02:48;;;;;;;0.73;0.10;;;;;;;18.21;100.00;99620.44;5021450;28;20044;-57
2023/07/24 01:05:17;;;;;;;0.30;0.03;;;;;;;18.21;100.00;99609.72;5014195;28;20104;-54
2023/07/24 01:07:43;;;;;;;3.03;0.85;;;;;;;18.29;100.00;99605.72;5021076;28;20425;-52
2023/07/24 01:10:09;;;;;;;0.65;0.57;;;;;;;18.23;100.00;99612.94;5014666;28;20095;-52
2023/07/24 01:13:00;;;;;;;1.80;0.35;;;;;;;18.25;100.00;99604.63;5012395;28;20033;-52
2023/07/24 01:15:31;;;;;;;0.28;0.00;;;;;;;18.17;100.00;99608.63;5015723;28;20049;-51
2023/07/24 01:18:05;;;;;;;2.17;0.40;;;;;;;18.17;100.00;99605.94;5019353;28;20034;-55
2023/07/24 01:20:35;;;;;;;0.22;0.22;;;;;;;18.14;100.00;99603.78;5019820;28;20553;-56
2023/07/24 01:23:09;;;;;;;0.28;0.20;;;;;;;18.13;100.00;99602.19;5015863;28;20607;-56
2023/07/24 01:25:44;;;;;;;0.15;0.10;;;;;;;17.99;100.00;99606.41;5019626;28;20050;-55
2023/07/24 01:28:09;;;;;;;0.10;0.10;;;;;;;17.87;100.00;99602.06;5018290;28;20083;-56
2023/07/24 01:30:35;;;;;;;0.30;0.10;;;;;;;17.75;100.00;99603.28;5019836;28;20037;-55
2023/07/24 01:33:00;;;;;;;0.00;0.00;;;;;;;17.59;100.00;99597.84;5015216;28;20030;-52
2023/07/24 01:35:27;;;;;;;2.72;0.52;;;;;;;17.56;100.00;99605.59;5015314;28;20041;-57
2023/07/24 01:37:56;;;;;;;0.55;0.30;;;;;;;17.59;100.00;99602.41;5020432;28;20083;-55
2023/07/24 01:40:22;;;;;;;4.45;0.38;;;;;;;17.70;100.00;99597.91;5019389;28;20029;-58
2023/07/24 01:42:49;;;;;;;0.00;0.00;;;;;;;17.81;100.00;99602.28;5015615;28;20037;-53
2023/07/24 01:45:15;;;;;;;4.30;0.25;;;;;;;17.86;100.00;99591.59;5017101;28;20124;-56
2023/07/24 01:47:40;;;;;;;0.28;0.28;;;;;;;17.95;100.00;99592.72;5018185;28;20025;-53
2023/07/24 01:50:06;;;;;;;1.65;0.35;;;;;;;18.03;100.00;99591.41;5017582;28;20366;-54
2023/07/24 01:52:31;;;;;;;1.48;0.15;;;;;;;18.02;100.00;99587.91;5020026;28;20033;-56
2023/07/24 01:54:57;;;;;;;0.75;0.20;;;;;;;18.04;100.00;99583.13;5016782;28;20036;-52
2023/07/24 01:57:22;;;;;;;1.17;0.20;;;;;;;18.09;100.00;99582.31;5017482;28;20085;-56
2023/07/24 01:59:48;;;;;;;0.95;0.20;;;;;;;18.18;100.00;99587.97;5020449;28;20021;-55
2023/07/24 02:02:14;;;;;;;0.28;0.20;;;;;;;18.14;100.00;99579.63;5022487;28;20049;-57
2023/07/24 02:04:39;;;;;;;0.40;0.40;;;;;;;18.13;100.00;99580.72;5022959;28;20026;-53
2023/07/24 02:07:05;;;;;;;0.75;0.10;;;;;;;18.04;100.00;99580.44;5024766;28;20037;-52
2023/07/24 02:09:30;;;;;;;0.65;0.10;;;;;;;18.04;100.00;99574.22;5013928;28;20045;-56
2023/07/24 02:11:55;;;;;;;2.22;0.10;;;;;;;18.04;100.00;99577.75;5020877;28;20032;-56
2023/07/24 02:14:21;;;;;;;0.90;0.30;;;;;;;18.06;100.00;99572.91;5025710;28;20566;-53
2023/07/24 02:16:46;;;;;;;0.60;0.08;;;;;;;18.10;100.00;99575.88;5020966;28;20060;-55
2023/07/24 02:19:11;;;;;;;1.83;0.10;;;;;;;18.06;100.00;99572.91;5021777;28;20037;-51
2023/07/24 02:21:37;;;;;;;0.63;0.10;;;;;;;18.09;100.00;99572.38;5024031;28;20117;-52
2023/07/24 02:24:02;;;;;;;3.53;0.20;;;;;;;18.14;100.00;99568.09;5022548;28;20060;-53
2023/07/24 02:26:28;;;;;;;0.60;0.22;;;;;;;18.11;100.00;99560.59;5024234;28;20068;-52
2023/07/24 02:28:53;;;;;;;1.55;0.45;;;;;;;18.11;100.00;99557.91;5015949;28;20036;-52
2023/07/24 02:31:19;;;;;;;0.38;0.35;;;;;;;18.09;100.00;99566.22;5021967;28;20087;-57
2023/07/24 02:33:44;;;;;;;0.25;0.25;;;;;;;18.09;100.00;99558.97;5021399;28;20065;-55
2023/07/24 02:36:10;;;;;;;0.63;0.63;;;;;;;18.08;100.00;99559.25;5020068;28;20430;-55
2023/07/24 02:38:35;;;;;;;2.85;0.20;;;;;;;17.92;100.00;99566.41;5022166;28;20428;-52
2023/07/24 02:41:00;;;;;;;0.30;0.00;;;;;;;17.95;100.00;99573.94;5020294;28;20128;-55
2023/07/24 02:43:26;;;;;;;1.48;0.40;;;;;;;17.97;100.00;99569.13;5023685;28;20459;-56
2023/07/24 02:45:51;;;;;;;0.47;0.30;;;;;;;18.03;100.00;99554.66;5019013;28;20519;-54
2023/07/24 02:48:16;;;;;;;0.70;0.10;;;;;;;18.01;100.00;99547.94;5024725;28;20477;-50
2023/07/24 02:50:41;;;;;;;1.63;0.30;;;;;;;17.99;100.00;99558.94;5021947;28;20056;-51
2023/07/24 02:53:07;;;;;;;1.20;0.20;;;;;;;18.00;100.00;99563.22;5021460;28;20592;-51
2023/07/24 02:55:32;;;;;;;1.67;0.20;;;;;;;17.96;100.00;99556.75;5022022;28;20454;-49
2023/07/24 02:57:58;;;;;;;1.55;0.20;;;;;;;18.02;100.00;99552.25;5024774;28;20044;-56
2023/07/24 03:00:23;;;;;;;1.40;0.10;;;;;;;18.06;100.00;99553.31;5021198;28;20582;-54
2023/07/24 03:02:48;;;;;;;0.98;0.20;;;;;;;18.12;100.00;99556.81;5021219;28;20033;-51
2023/07/24 03:05:14;;;;;;;0.63;0.20;;;;;;;18.14;100.00;99555.50;5019543;28;20038;-53
2023/07/24 03:07:39;;;;;;;1.17;0.60;;;;;;;18.16;100.00;99549.88;5023760;28;20040;-49
2023/07/24 03:10:05;;;;;;;2.50;0.30;;;;;;;18.14;100.00;99550.13;5021585;28;20037;-56
2023/07/24 03:12:30;;;;;;;2.90;0.88;;;;;;;18.11;100.00;99553.34;5015743;28;20042;-51
2023/07/24 03:14:56;;;;;;;0.80;0.35;;;;;;;18.04;100.00;99550.09;5022759;28;20048;-53
2023/07/24 03:17:22;;;;;;;4.22;0.25;;;;;;;18.04;100.00;99556.28;5022320;28;20048;-56
2023/07/24 03:19:49;;;;;;;0.30;0.10;;;;;;;18.02;100.00;99561.09;5023434;28;20044;-51
2023/07/24 03:22:14;;;;;;;0.10;0.10;;;;;;;18.03;100.00;99554.66;5019945;28;20029;-56
2023/07/24 03:24:39;;;;;;;3.80;0.30;;;;;;;17.98;100.00;99557.31;5022144;28;20040;-55
2023/07/24 03:27:04;;;;;;;3.65;0.75;;;;;;;17.82;100.00;99566.38;5023657;28;20071;-52
2023/07/24 03:29:30;;;;;;;2.63;0.13;;;;;;;17.88;100.00;99562.63;5022704;28;20053;-57
2023/07/24 03:31:55;;;;;;;0.82;0.57;;;;;;;18.05;100.00;99554.41;5022607;28;20037;-57
2023/07/24 03:34:20;;;;;;;0.30;0.10;;;;;;;18.03;100.00;99549.28;5021665;28;20049;-56
2023/07/24 03:36:46;;;;;;;3.20;0.15;;;;;;;17.98;100.00;99551.97;5022257;28;20346;-54
2023/07/24 03:39:11;;;;;;;1.17;0.20;;;;;;;17.91;100.00;99550.59;5014667;28;20025;-52
2023/07/24 03:41:38;;;;;;;2.67;0.28;;;;;;;17.83;100.00;99554.56;5018705;28;20486;-55
2023/07/24 03:44:03;;;;;;;2.60;0.10;;;;;;;17.76;100.00;99560.16;5018167;28;20040;-55
2023/07/24 03:46:29;;;;;;;0.50;0.10;;;;;;;17.74;100.00;99556.13;5019384;28;20033;-56
2023/07/24 03:48:54;;;;;;;2.17;0.77;;;;;;;17.56;100.00;99560.03;5021949;28;20041;-52
2023/07/24 03:51:19;;;;;;;0.20;0.10;;;;;;;17.49;100.00;99556.78;5024386;28;20030;-56
2023/07/24 03:53:45;;;;;;;1.80;0.10;;;;;;;17.66;100.00;99560.91;5021514;28;20026;-56
2023/07/24 03:56:10;;;;;;;0.80;0.63;;;;;;;17.73;100.00;99562.53;5023470;28;20025;-53
2023/07/24 03:58:38;;;;;;;0.20;0.10;;;;;;;17.72;100.00;99563.59;5014043;28;20027;-52
2023/07/24 04:01:04;;;;;;;0.30;0.20;;;;;;;17.72;100.00;99563.59;5022095;28;20099;-55
2023/07/24 04:03:29;;;;;;;0.43;0.20;;;;;;;17.65;100.00;99563.81;5014268;28;20437;-55
2023/07/24 04:05:54;;;;;;;3.10;0.13;;;;;;;17.67;100.00;99577.78;5014912;28;20414;-53
2023/07/24 04:08:20;;;;;;;0.13;0.08;;;;;;;17.64;100.00;99573.75;5022407;28;20053;-55
2023/07/24 04:10:45;;;;;;;2.72;0.10;;;;;;;17.62;100.00;99570.50;5020173;28;20770;-55
2023/07/24 04:13:10;;;;;;;0.80;0.10;;;;;;;17.69;100.00;99572.97;5020323;28;20479;-56
2023/07/24 04:15:36;;;;;;;3.25;0.30;;;;;;;17.78;100.00;99576.75;5019181;28;20116;-52
2023/07/24 04:18:01;;;;;;;1.10;0.20;;;;;;;17.78;100.00;99567.91;5018727;28;20034;-54
2023/07/24 04:20:27;;;;;;;2.00;0.20;;;;;;;17.80;100.00;99577.34;5021732;28;20171;-52
2023/07/24 04:22:52;;;;;;;0.82;0.00;;;;;;;17.82;100.00;99575.22;5020693;28;20499;-50
2023/07/24 04:25:17;;;;;;;0.75;0.40;;;;;;;17.81;100.00;99570.09;5022067;28;20041;-53
2023/07/24 04:27:43;;;;;;;0.85;0.30;;;;;;;17.82;100.00;99579.78;5020442;28;20029;-53
2023/07/24 04:30:08;;;;;;;0.45;0.40;;;;;;;17.79;100.00;99575.75;5022163;28;20180;-52
2023/07/24 04:32:34;;;;;;;0.50;0.25;;;;;;;17.78;100.00;99573.28;5017272;28;20040;-53
2023/07/24 04:34:59;;;;;;;1.20;0.50;;;;;;;17.80;100.00;99576.53;5018171;28;20041;-55
2023/07/24 04:37:24;;;;;;;0.40;0.20;;;;;;;17.83;100.00;99581.38;5021105;28;20029;-52
2023/07/24 04:39:50;;;;;;;3.55;0.50;;;;;;;17.75;100.00;99573.81;5020772;28;20049;-52
2023/07/24 04:42:15;;;;;;;0.52;0.40;;;;;;;17.73;100.00;99578.63;5022016;28;20402;-51
2023/07/24 04:44:40;;;;;;;3.00;0.95;;;;;;;17.80;100.00;99587.28;5020509;28;20363;-57
2023/07/24 04:47:06;;;;;;;0.10;0.10;;;;;;;17.86;100.00;99588.91;5023737;28;20443;-52
2023/07/24 04:49:32;;;;;;;1.90;0.30;;;;;;;17.90;100.00;99589.19;5022086;28;20430;-52
2023/07/24 04:52:00;;;;;;;0.82;0.20;;;;;;;17.91;100.00;99588.94;5015553;28;20041;-52
2023/07/24 04:54:26;;;;;;;1.15;0.32;;;;;;;17.93;100.00;99586.78;5017069;28;20291;-53
2023/07/24 04:56:51;;;;;;;0.40;0.20;;;;;;;17.93;100.00;99592.16;5019347;28;20242;-51
2023/07/24 04:59:16;;;;;;;0.60;0.57;;;;;;;17.89;100.00;99591.09;5021242;28;20037;-52
2023/07/24 05:01:42;;;;;;;2.95;1.55;;;;;;;17.91;100.00;99591.59;5014394;28;20463;-51
2023/07/24 05:04:08;;;;;;;1.98;0.82;;;;;;;17.90;100.00;99591.88;5021242;28;20034;-49
2023/07/24 05:06:35;;;;;;;0.10;0.10;;;;;;;17.81;100.00;99588.88;5020473;28;20033;-55
2023/07/24 05:09:01;;;;;;;2.92;0.03;;;;;;;17.73;100.00;99592.81;5021651;28;20035;-54
2023/07/24 05:11:26;;;;;;;0.98;0.20;;;;;;;17.70;100.00;99589.88;5019535;28;20033;-52
2023/07/24 05:13:51;;;;;;;0.77;0.68;;;;;;;17.64;100.00;99589.84;5022050;28;20491;-51
2023/07/24 05:16:16;;;;;;;1.52;0.40;;;;;;;17.59;100.00;99591.69;5019373;28;20522;-54
2023/07/24 05:18:42;;;;;;;0.65;0.35;;;;;;;17.58;100.00;99596.25;5019927;28;20124;-57
2023/07/24 05:21:07;;;;;;;0.57;0.10;;;;;;;17.60;100.00;99604.00;5014670;28;20034;-54
2023/07/24 05:23:32;;;;;;;2.30;0.10;;;;;;;17.59;100.00;99595.16;5022190;28;20045;-56
2023/07/24 05:25:59;;;;;;;0.98;0.10;;;;;;;17.61;100.00;99606.44;5017172;28;20044;-52
2023/07/24 05:28:27;;;;;;;2.05;0.73;;;;;;;17.63;100.00;99598.94;5025194;28;20425;-52
2023/07/24 05:30:52;;;;;;;0.95;0.22;;;;;;;17.70;100.00;99608.63;5017281;28;20349;-55
2023/07/24 05:33:17;;;;;;;0.95;0.10;;;;;;;17.65;100.00;99604.84;5021246;28;20274;-55
2023/07/24 05:35:43;;;;;;;1.80;0.32;;;;;;;17.72;100.00;99604.63;5023188;28;20044;-54
2023/07/24 05:38:08;;;;;;;2.22;0.77;;;;;;;17.77;100.00;99603.84;5025235;28;20037;-54
2023/07/24 05:40:34;;;;;;;0.50;0.28;;;;;;;17.78;100.00;99600.09;5027504;28;20029;-54
2023/07/24 05:42:59;;;;;;;1.20;0.32;;;;;;;17.88;100.00;99605.53;5023932;28;20394;-54
2023/07/24 05:45:26;;;;;;;0.75;0.30;;;;;;;17.96;100.00;99599.69;5022887;28;20084;-51
2023/07/24 05:47:51;;;;;;;0.90;0.45;;;;;;;17.94;100.00;99604.53;5023948;28;20116;-56
2023/07/24 05:50:16;;;;;;;0.98;0.30;;;;;;;17.96;100.00;99610.41;5024123;28;20483;-52
2023/07/24 05:52:42;;;;;;;2.15;0.45;;;;;;;18.03;100.00;99607.50;5018272;28;20110;-55
2023/07/24 05:55:08;;;;;;;3.75;0.50;;;;;;;18.05;100.00;99610.72;5019120;28;20364;-50
2023/07/24 05:57:33;;;;;;;1.45;0.10;;;;;;;18.03;100.00;99608.31;5024875;28;20029;-56
2023/07/24 05:59:58;;;;;;;1.40;0.47;;;;;;;18.01;100.00;99605.06;5023747;28;20176;-54
2023/07/24 06:02:23;;;;;;;2.40;0.28;;;;;;;18.03;100.00;99610.19;5024926;28;20517;-54
2023/07/24 06:04:49;;;;;;;6.70;0.70;;;;;;;18.06;100.00;99613.13;5023897;28;20124;-55
2023/07/24 06:07:14;;;;;;;2.20;0.63;;;;;;;18.08;100.00;99613.69;5024937;28;20069;-52
2023/07/24 06:09:40;;;;;;;0.88;0.32;;;;;;;18.12;100.00;99610.47;5026617;28;20065;-57
2023/07/24 06:12:05;;;;;;;2.15;0.35;;;;;;;18.14;100.00;99608.34;5023273;28;20148;-53
2023/07/24 06:14:31;;;;;;;1.55;0.85;;;;;;;18.16;100.00;99611.56;5013094;28;20079;-52
2023/07/24 06:16:56;;;;;;;1.40;0.10;;;;;;;18.16;100.00;99604.34;5022549;28;20442;-56
2023/07/24 06:19:21;;;;;;;1.48;0.13;;;;;;;18.16;100.00;99620.44;5023068;28;20029;-57
2023/07/24 06:21:46;;;;;;;1.02;0.50;;;;;;;18.03;100.00;99624.38;5024386;28;20397;-63
2023/07/24 06:24:13;;;;;;;1.35;0.00;;;;;;;17.78;100.00;99619.66;5013348;28;20469;-59
2023/07/24 06:26:39;;;;;;;2.35;0.28;;;;;;;17.80;100.00;99622.13;5023802;28;20494;-62
2023/07/24 06:29:04;;;;;;;0.85;0.55;;;;;;;17.78;100.00;99626.91;5023830;28;20694;-57
2023/07/24 06:31:29;;;;;;;0.98;0.00;;;;;;;17.85;100.00;99632.88;5021096;28;20041;-55
2023/07/24 06:33:54;;;;;;;0.10;0.10;;;;;;;17.64;100.00;99623.88;5022214;28;20064;-61
2023/07/24 06:36:20;;;;;;;0.32;0.32;;;;;;;17.43;100.00;99630.97;5019854;28;20042;-64
2023/07/24 06:38:47;;;;;;;0.45;0.00;;;;;;;17.36;100.00;99636.53;5021170;28;20037;-58
2023/07/24 06:41:12;;;;;;;0.10;0.00;;;;;;;17.29;100.00;99640.50;5023333;28;20040;-60
2023/07/24 06:43:38;;;;;;;0.00;0.00;;;;;;;17.28;100.00;99647.72;5021635;28;20033;-61
2023/07/24 06:46:04;;;;;;;0.10;0.10;;;;;;;17.23;100.00;99642.31;5017100;28;20037;-58
2023/07/24 06:48:29;;;;;;;1.08;0.05;;;;;;;17.28;100.00;99642.38;5022780;28;20669;-61
2023/07/24 06:50:54;;;;;;;0.08;0.00;;;;;;;17.27;100.00;99646.13;5020859;28;20467;-60
2023/07/24 06:53:20;;;;;;;0.75;0.75;;;;;;;17.24;100.00;99649.28;5022931;28;20025;-60
2023/07/24 06:55:45;;;;;;;0.00;0.00;;;;;;;17.33;100.00;99655.81;5017515;28;20049;-62
2023/07/24 06:58:10;;;;;;;0.00;0.00;;;;;;;17.32;100.00;99650.69;5023626;28;20035;-63
2023/07/24 07:00:36;;;;;;;0.00;0.00;;;;;;;17.28;100.00;99649.59;5018382;28;20033;-56
2023/07/24 07:03:01;;;;;;;0.30;0.00;;;;;;;17.37;100.00;99653.41;5022886;28;20068;-62
2023/07/24 07:05:26;;;;;;;0.00;0.00;;;;;;;17.48;100.00;99655.13;5023500;28;20033;-56
2023/07/24 07:07:52;;;;;;;0.65;0.10;;;;;;;17.52;100.00;99660.78;5016928;28;20574;-60
2023/07/24 07:10:17;;;;;;;0.00;0.00;;;;;;;17.55;100.00;99655.69;5019040;28;20034;-57
2023/07/24 07:12:42;;;;;;;0.10;0.10;;;;;;;17.38;100.00;99661.22;5018012;28;20116;-64
2023/07/24 07:15:08;;;;;;;0.00;0.00;;;;;;;17.32;100.00;99666.75;5022463;28;20263;-61
2023/07/24 07:17:33;;;;;;;3.25;0.20;;;;;;;17.29;100.00;99662.72;5021263;28;20504;-61
2023/07/24 07:19:59;;;;;;;0.00;0.00;;;;;;;17.33;100.00;99674.56;5023686;28;20378;-60
2023/07/24 07:22:24;;;;;;;0.00;0.00;;;;;;;17.29;100.00;99675.31;5022256;28;20040;-63
2023/07/24 07:24:49;;;;;;;0.00;0.00;;;;;;;17.21;100.00;99676.59;5024088;28;20052;-59
2023/07/24 07:27:17;;;;;;;0.20;0.00;;;;;;;17.19;100.00;99684.91;5021740;28;20925;-63
2023/07/24 07:29:43;;;;;;;0.00;0.00;;;;;;;17.09;100.00;99687.47;5016559;28;20041;-56
2023/07/24 07:32:08;;;;;;;0.00;0.00;;;;;;;17.12;100.00;99692.31;5020388;28;20029;-63
2023/07/24 07:34:35;;;;;;;1.55;0.00;;;;;;;17.10;100.00;99689.09;5020505;28;20041;-62
2023/07/24 07:37:01;;;;;;;0.00;0.00;;;;;;;16.94;100.00;99695.34;5017928;28;20064;-62
2023/07/24 07:39:26;;;;;;;1.85;0.00;;;;;;;16.94;100.00;99698.03;5023171;28;20059;-63
2023/07/24 07:41:52;;;;;;;0.32;0.00;;;;;;;16.83;100.00;99707.00;5020999;28;20471;-64
2023/07/24 07:44:17;;;;;;;0.73;0.00;;;;;;;16.87;100.00;99703.56;5021979;28;20147;-62
2023/07/24 07:46:43;;;;;;;0.20;0.00;;;;;;;16.94;100.00;99708.75;5014398;28;20030;-63
2023/07/24 07:49:08;;;;;;;2.72;0.00;;;;;;;16.79;100.00;99704.81;5022722;28;20112;-62
2023/07/24 07:51:33;;;;;;;0.60;0.00;;;;;;;16.77;100.00;99712.28;5014143;28;20037;-65
2023/07/24 07:53:58;;;;;;;0.00;0.00;;;;;;;16.82;100.00;99713.44;5020394;28;20595;-62
2023/07/24 07:56:24;;;;;;;0.00;0.00;;;;;;;16.83;100.00;99701.66;5022283;28;20029;-65
2023/07/24 07:58:49;;;;;;;0.00;0.00;;;;;;;16.77;100.00;99703.44;5021719;28;20044;-64
2023/07/24 08:01:14;;;;;;;0.00;0.00;;;;;;;16.60;100.00;99706.19;5019596;28;20056;-64
2023/07/24 08:03:40;;;;;;;0.03;0.00;;;;;;;16.68;100.00;99711.09;5017742;28;20037;-63
2023/07/24 08:06:06;;;;;;;0.00;0.00;;;;;;;16.63;100.00;99707.56;5022631;28;20076;-63
2023/07/24 08:08:31;;;;;;;0.00;0.00;;;;;;;16.82;100.00;99703.53;5021381;28;20034;-61
2023/07/24 08:10:56;;;;;;;0.00;0.00;;;;;;;17.09;100.00;99708.06;5018508;28;20037;-65
2023/07/24 08:13:22;;;;;;;0.40;0.28;;;;;;;17.40;100.00;99703.84;5020799;28;20052;-66
2023/07/24 08:15:47;;;;;;;0.00;0.00;;;;;;;17.57;100.00;99695.66;5020832;28;20554;-64
2023/07/24 08:18:13;;;;;;;0.25;0.00;;;;;;;17.64;100.00;99704.28;5023831;28;20057;-64
2023/07/24 08:20:41;;;;;;;0.00;0.00;;;;;;;17.89;100.00;99706.41;5019224;28;20039;-61
2023/07/24 08:23:06;;;;;;;4.18;0.88;;;;;;;18.08;100.00;99715.63;5021067;28;20033;-64
2023/07/24 08:25:31;;;;;;;0.20;0.00;;;;;;;18.17;100.00;99715.13;5021139;28;21013;-65
2023/07/24 08:27:57;;;;;;;0.13;0.00;;;;;;;18.17;100.00;99713.25;5022917;28;20037;-63
2023/07/24 08:30:22;;;;;;;0.00;0.00;;;;;;;18.19;100.00;99716.47;5010543;28;20033;-62
2023/07/24 08:32:50;;;;;;;0.00;0.00;;;;;;;18.23;100.00;99709.53;5010541;28;20030;-64
2023/07/24 08:35:15;;;;;;;2.53;0.00;;;;;;;18.36;100.00;99713.63;5021045;28;20494;-61
2023/07/24 08:37:46;;;;;;;0.68;0.00;;;;;;;18.23;100.00;99708.75;5020952;28;20029;-65
2023/07/24 08:40:12;;;;;;;0.20;0.00;;;;;;;18.41;100.00;99710.97;5017666;28;20036;-64
2023/07/24 08:42:40;;;;;;;1.13;0.00;;;;;;;18.31;100.00;99721.66;5017947;28;20042;-66
2023/07/24 08:45:11;;;;;;;0.13;0.00;;;;;;;18.50;100.00;99725.50;5017863;28;20436;-63
2023/07/24 08:47:39;;;;;;;0.00;0.00;;;;;;;18.57;100.00;99717.22;5015624;28;20036;-66
2023/07/24 08:50:05;;;;;;;3.00;0.10;;;;;;;18.41;100.00;99716.34;5019824;28;20061;-67
2023/07/24 08:52:31;;;;;;;0.00;0.00;;;;;;;18.47;100.00;99728.72;5018128;28;20053;-68
2023/07/24 08:54:58;;;;;;;0.10;0.00;;;;;;;18.61;100.00;99736.28;5021080;28;20029;-66
2023/07/24 08:57:24;;;;;;;0.00;0.00;;;;;;;18.73;100.00;99720.75;5019763;28;20051;-66
2023/07/24 08:59:49;;;;;;;0.00;0.00;;;;;;;18.91;100.00;99730.25;5016540;28;20428;-63
2023/07/24 09:02:14;;;;;;;0.10;0.10;;;;;;;19.17;100.00;99733.81;5014773;28;20623;-64
2023/07/24 09:04:40;;;;;;;0.00;0.00;;;;;;;18.90;100.00;99728.66;5019438;28;20494;-65
2023/07/24 09:07:07;;;;;;;0.00;0.00;;;;;;;18.68;100.00;99732.28;5022402;28;20482;-65
2023/07/24 09:09:32;;;;;;;0.00;0.00;;;;;;;18.41;100.00;99734.31;5019304;28;20041;-61
2023/07/24 09:11:59;;;;;;;0.00;0.00;;;;;;;18.39;100.00;99734.56;5020218;28;20057;-62
2023/07/24 09:14:26;;;;;;;0.20;0.00;;;;;;;18.62;100.00;99737.91;5015541;28;20413;-60
2023/07/24 09:17:06;;;;;;;0.10;0.00;;;;;;;18.32;100.00;99734.00;5017028;28;20120;-65
2023/07/24 09:19:32;;;;;;;1.95;0.00;;;;;;;18.52;100.00;99736.78;5015123;28;20065;-65
2023/07/24 09:22:08;;;;;;;0.47;0.00;;;;;;;18.67;100.00;99738.72;5016830;28;20447;-66
2023/07/24 09:24:34;;;;;;;0.75;0.00;;;;;;;19.11;100.00;99734.88;5021483;28;20040;-66
2023/07/24 09:26:59;;;;;;;0.00;0.00;;;;;;;19.33;100.00;99724.69;5019983;28;20029;-64
2023/07/24 09:29:31;;;;;;;0.00;0.00;;;;;;;19.09;100.00;99728.97;5018170;28;20044;-65
2023/07/24 09:31:56;;;;;;;0.32;0.10;;;;;;;18.84;100.00;99733.16;5021571;28;20029;-64
2023/07/24 09:34:22;;;;;;;0.00;0.00;;;;;;;18.78;100.00;99734.25;5021313;28;20564;-57
2023/07/24 09:36:47;;;;;;;0.00;0.00;;;;;;;18.74;100.00;99742.00;5015048;28;20108;-62
2023/07/24 09:39:12;;;;;;;0.00;0.00;;;;;;;18.99;100.00;99747.75;5016952;28;20180;-63
2023/07/24 09:41:39;;;;;;;0.00;0.00;;;;;;;19.44;100.00;99738.97;5008997;28;20659;-57
2023/07/24 09:44:05;;;;;;;0.00;0.00;;;;;;;19.49;100.00;99741.66;5015290;28;20371;-65
2023/07/24 09:46:31;;;;;;;0.00;0.00;;;;;;;19.58;100.00;99741.91;5019754;28;20037;-62
2023/07/24 09:48:57;;;;;;;0.00;0.00;;;;;;;19.39;100.00;99744.34;5020820;28;20182;-65
2023/07/24 09:51:22;;;;;;;0.00;0.00;;;;;;;19.18;100.00;99754.25;5018884;28;20038;-60
2023/07/24 09:53:57;;;;;;;0.00;0.00;;;;;;;19.22;100.00;99744.56;5020907;28;20025;-66
2023/07/24 09:56:24;;;;;;;0.00;0.00;;;;;;;19.32;100.00;99759.91;5017178;28;20108;-66
2023/07/24 09:58:54;;;;;;;0.00;0.00;;;;;;;19.54;100.00;99759.66;5018262;28;20420;-63
2023/07/24 10:01:20;;;;;;;0.00;0.00;;;;;;;20.13;100.00;99764.50;5020499;28;20041;-62
2023/07/24 10:03:50;;;;;;;0.00;0.00;;;;;;;20.34;100.00;99756.41;5017110;28;20356;-65
2023/07/24 10:06:16;;;;;;;0.22;0.00;;;;;;;20.63;100.00;99764.72;5020403;28;20029;-66
2023/07/24 10:08:42;;;;;;;1.15;0.10;;;;;;;20.39;100.00;99764.47;5020974;28;20418;-66
2023/07/24 10:11:10;;;;;;;0.95;0.10;;;;;;;19.81;100.00;99760.25;5019349;28;20033;-61
2023/07/24 10:13:37;;;;;;;0.88;0.00;;;;;;;19.55;100.00;99766.66;5020787;28;20037;-60
2023/07/24 10:16:06;;;;;;;0.47;0.00;;;;;;;19.50;100.00;99774.72;5034980;28;20037;-58
2023/07/24 10:18:31;;;;;;;0.00;0.00;;;;;;;19.52;100.00;99769.88;5021264;28;20033;-53
2023/07/24 10:21:04;;;;;;;0.85;0.00;;;;;;;19.36;100.00;99769.03;5021561;28;20041;-61
2023/07/24 10:23:30;;;;;;;0.00;0.00;;;;;;;19.38;100.00;99783.03;5021765;28;20108;-60
2023/07/24 10:25:55;;;;;;;1.90;0.08;;;;;;;19.48;100.00;99769.59;5022994;28;20059;-62
2023/07/24 10:28:40;;;;;;;0.00;0.00;;;;;;;19.56;100.00;99784.41;5023696;28;20030;-63
2023/07/24 10:31:23;;;;;;;0.88;0.00;;;;;;;19.64;100.00;99780.38;5021133;28;20033;-62
2023/07/24 10:33:49;;;;;;;0.08;0.08;;;;;;;19.57;100.00;99788.72;5021776;28;20034;-56
2023/07/24 10:36:19;;;;;;;0.00;0.00;;;;;;;19.53;100.00;99790.31;5022504;28;20033;-60
2023/07/24 10:38:45;;;;;;;0.10;0.00;;;;;;;19.52;100.00;99786.81;5023387;28;20112;-64
2023/07/24 10:41:11;;;;;;;1.35;0.10;;;;;;;19.48;100.00;99798.38;5023131;28;20163;-64
2023/07/24 10:43:45;;;;;;;0.55;0.38;;;;;;;19.44;100.00;99794.59;5011987;28;20115;-60
2023/07/24 10:46:11;;;;;;;1.27;0.03;;;;;;;19.38;100.00;99802.63;5017058;28;20029;-59
2023/07/24 10:48:37;;;;;;;0.15;0.00;;;;;;;19.47;100.00;99804.84;5022035;28;20045;-63
2023/07/24 10:51:11;;;;;;;1.35;0.98;;;;;;;19.56;100.00;99806.72;5019590;28;20023;-64
2023/07/24 10:53:37;;;;;;;0.63;0.00;;;;;;;19.34;100.00;99811.53;5022573;28;20655;-54
2023/07/24 10:56:06;;;;;;;0.15;0.00;;;;;;;19.31;100.00;99820.09;5021847;28;20394;-65
2023/07/24 10:58:33;;;;;;;1.02;0.03;;;;;;;19.24;100.00;99820.34;5016352;28;20041;-64
2023/07/24 11:00:58;;;;;;;0.65;0.00;;;;;;;19.02;100.00;99833.16;5018370;28;20046;-64
2023/07/24 11:03:24;;;;;;;0.43;0.00;;;;;;;18.98;100.00;99834.78;5022317;28;20037;-66
2023/07/24 11:05:50;;;;;;;0.22;0.00;;;;;;;18.85;100.00;99834.19;5032403;28;20021;-59
2023/07/24 11:08:17;;;;;;;1.00;0.55;;;;;;;18.60;100.00;99842.06;5023613;28;20026;-63
2023/07/24 11:10:53;;;;;;;0.10;0.00;;;;;;;18.33;100.00;99842.97;5017217;28;20033;-64
2023/07/24 11:13:23;;;;;;;2.15;0.10;;;;;;;18.29;100.00;99852.59;5022614;28;20037;-63
2023/07/24 11:15:49;;;;;;;0.00;0.00;;;;;;;18.31;100.00;99858.50;5014889;28;20037;-64
2023/07/24 11:18:16;;;;;;;1.23;0.00;;;;;;;18.25;100.00;99867.56;5016214;28;20034;-63
2023/07/24 11:20:53;;;;;;;1.27;0.00;;;;;;;17.99;100.00;99864.69;5023590;28;20056;-63